Time;durP1;ratioP1;P1;durP2;ratioP2;P2;SDS_P1;SDS_P2;PMS_P1;PMS_P2;Temp;Humidity;BMP_temperature;BMP_pressure;BME280_temperature;BME280_humidity;BME280_pressure;Samples;Min_cycle;Max_cycle;Signal;HPM_P1;HPM_P2
2021/07/07 00:02:00;;;;;;;6.55;6.00;;;;;;;21.30;92.83;99770.91;1730616;81;21152;-89
2021/07/07 00:04:26;;;;;;;9.18;6.25;;;;;;;21.29;93.51;99768.52;1734521;81;21500;-88
2021/07/07 00:06:52;;;;;;;8.05;5.40;;;;;;;21.27;93.52;99777.03;1725811;82;20952;-88
2021/07/07 00:09:20;;;;;;;8.78;5.53;;;;;;;21.27;93.26;99782.50;1713125;82;21096;-89
2021/07/07 00:11:46;;;;;;;6.90;4.50;;;;;;;21.30;93.17;99778.31;1729011;81;21000;-79
2021/07/07 00:14:13;;;;;;;5.50;5.00;;;;;;;21.35;93.15;99778.72;1741806;81;21145;-77
2021/07/07 00:16:39;;;;;;;7.10;6.50;;;;;;;21.41;92.75;99774.16;1737117;81;21604;-77
2021/07/07 00:19:06;;;;;;;7.97;6.35;;;;;;;21.38;92.85;99781.65;1725575;82;21020;-77
2021/07/07 00:21:32;;;;;;;10.78;6.28;;;;;;;21.33;93.04;99786.47;1718395;83;21008;-74
2021/07/07 00:23:59;;;;;;;10.08;6.00;;;;;;;21.25;93.98;99780.64;1728518;81;21016;-76
2021/07/07 00:26:26;;;;;;;8.05;6.97;;;;;;;21.19;93.57;99790.70;1707583;83;22126;-76
2021/07/07 00:28:52;;;;;;;7.05;6.42;;;;;;;21.15;94.07;99782.30;1748518;81;20977;-76
2021/07/07 00:31:20;;;;;;;8.70;6.03;;;;;;;21.14;94.63;99790.84;1740891;81;21059;-74
2021/07/07 00:33:46;;;;;;;7.42;6.58;;;;;;;21.12;94.94;99787.57;1735011;81;21008;-75
2021/07/07 00:36:12;;;;;;;6.85;6.10;;;;;;;21.10;95.61;99791.20;1740244;81;21027;-75
2021/07/07 00:38:39;;;;;;;10.93;6.12;;;;;;;21.09;95.28;99790.39;1726099;81;21198;-74
2021/07/07 00:41:05;;;;;;;11.75;7.47;;;;;;;21.12;94.84;99788.38;1730150;82;21017;-75
2021/07/07 00:43:32;;;;;;;8.38;7.03;;;;;;;21.09;94.88;99789.03;1726656;81;21434;-77
2021/07/07 00:46:00;;;;;;;7.08;6.37;;;;;;;21.11;95.04;99785.39;1741152;81;20988;-75
2021/07/07 00:48:27;;;;;;;7.85;6.80;;;;;;;21.11;95.59;99786.77;1737610;81;21019;-75
2021/07/07 00:50:54;;;;;;;7.70;6.78;;;;;;;21.08;96.11;99795.61;1744644;81;21219;-73
2021/07/07 00:53:21;;;;;;;8.10;6.90;;;;;;;21.04;96.33;99794.64;1715225;81;21513;-73
2021/07/07 00:55:48;;;;;;;7.37;6.65;;;;;;;21.01;96.64;99796.62;1710628;81;20996;-75
2021/07/07 00:58:14;;;;;;;10.45;5.85;;;;;;;20.98;96.90;99788.25;1718711;81;21488;-74
2021/07/07 01:00:41;;;;;;;5.37;4.87;;;;;;;21.01;96.66;99792.52;1742242;81;21557;-77
2021/07/07 01:03:07;;;;;;;10.30;5.92;;;;;;;21.03;95.78;99790.84;1742653;81;21191;-76
2021/07/07 01:05:34;;;;;;;8.48;5.95;;;;;;;21.07;95.64;99793.99;1728948;81;20991;-74
2021/07/07 01:08:00;;;;;;;5.58;5.12;;;;;;;21.10;95.33;99791.20;1738412;81;21040;-74
2021/07/07 01:10:27;;;;;;;7.08;6.40;;;;;;;21.04;95.09;99791.91;1729782;81;21086;-74
2021/07/07 01:12:55;;;;;;;7.80;5.25;;;;;;;20.98;95.17;99797.26;1731896;81;21068;-76
2021/07/07 01:15:22;;;;;;;7.28;6.22;;;;;;;20.94;95.41;99795.47;1704719;82;21228;-74
2021/07/07 01:17:48;;;;;;;7.10;5.72;;;;;;;20.86;95.79;99792.38;1730108;81;21019;-75
2021/07/07 01:20:24;;;;;;;7.22;5.10;;;;;;;20.85;95.73;99796.81;1739139;81;21678;-77
2021/07/07 01:22:54;;;;;;;6.37;5.62;;;;;;;20.85;95.08;99800.36;1731132;81;21079;-81
2021/07/07 01:25:20;;;;;;;4.58;4.17;;;;;;;20.83;95.03;99797.12;1728413;81;21000;-74
2021/07/07 01:27:46;;;;;;;5.70;5.20;;;;;;;20.87;95.02;99802.75;1728374;81;21024;-76
2021/07/07 01:30:21;;;;;;;6.55;5.95;;;;;;;20.86;94.98;99802.53;1727550;81;21006;-75
2021/07/07 01:32:47;;;;;;;7.70;6.00;;;;;;;20.79;95.36;99809.81;1713621;83;22112;-76
2021/07/07 01:35:14;;;;;;;6.53;5.92;;;;;;;20.74;95.89;99811.31;1740518;81;21038;-76
2021/07/07 01:37:41;;;;;;;9.08;6.47;;;;;;;20.70;95.98;99811.70;1722752;81;21064;-76
2021/07/07 01:40:12;;;;;;;12.10;6.15;;;;;;;20.68;96.00;99811.19;1728194;81;21006;-73
2021/07/07 01:42:38;;;;;;;7.10;5.72;;;;;;;20.70;95.86;99817.16;1702433;82;20937;-74
2021/07/07 01:45:07;;;;;;;8.60;5.80;;;;;;;20.72;95.49;99812.17;1727567;82;20979;-76
2021/07/07 01:47:34;;;;;;;8.70;6.37;;;;;;;20.73;95.39;99806.95;1740917;81;21020;-75
2021/07/07 01:50:01;;;;;;;9.08;6.22;;;;;;;20.78;95.57;99812.84;1727820;82;21106;-74
2021/07/07 01:52:27;;;;;;;6.47;5.80;;;;;;;20.73;95.66;99817.08;1735123;81;22157;-75
2021/07/07 01:54:54;;;;;;;6.72;6.12;;;;;;;20.62;96.02;99814.39;1733772;81;21520;-76
2021/07/07 01:57:21;;;;;;;9.70;5.92;;;;;;;20.54;96.61;99820.59;1705781;83;20992;-75
2021/07/07 01:59:47;;;;;;;6.47;5.90;;;;;;;20.45;97.26;99818.62;1731752;81;21089;-73
2021/07/07 02:02:13;;;;;;;5.45;4.58;;;;;;;20.44;97.29;99824.39;1728910;81;21079;-76
2021/07/07 02:04:40;;;;;;;6.90;6.12;;;;;;;20.43;96.87;99826.31;1703607;82;21107;-76
2021/07/07 02:07:08;;;;;;;6.03;5.40;;;;;;;20.41;96.91;99825.83;1721711;83;21488;-75
2021/07/07 02:09:35;;;;;;;7.65;5.62;;;;;;;20.43;97.07;99836.45;1741085;81;21575;-75
2021/07/07 02:31:07;;;;;;;5.70;5.30;;;;;;;20.31;97.28;99845.76;1693419;80;24107;-75
2021/07/07 02:33:35;;;;;;;8.20;6.30;;;;;;;20.25;96.99;99849.69;1676554;83;21000;-74
2021/07/07 02:36:01;;;;;;;9.43;6.67;;;;;;;20.19;97.39;99850.36;1700564;83;21128;-75
2021/07/07 02:38:29;;;;;;;10.10;7.30;;;;;;;20.14;97.69;99849.70;1686429;83;20969;-74
2021/07/07 02:40:56;;;;;;;8.73;6.00;;;;;;;20.09;98.19;99849.81;1673601;84;21629;-75
2021/07/07 02:43:22;;;;;;;9.40;6.83;;;;;;;20.13;97.63;99850.26;1692251;83;21274;-75
2021/07/07 02:45:49;;;;;;;7.25;6.55;;;;;;;20.17;97.28;99855.34;1687405;84;20916;-75
2021/07/07 02:48:15;;;;;;;6.58;6.03;;;;;;;20.20;97.14;99851.17;1698370;83;21314;-76
2021/07/07 02:50:44;;;;;;;9.85;5.85;;;;;;;20.18;97.29;99857.52;1692535;84;20945;-75
2021/07/07 02:53:12;;;;;;;8.03;6.05;;;;;;;20.19;97.00;99862.66;1697715;84;20993;-73
2021/07/07 02:55:38;;;;;;;7.80;6.67;;;;;;;20.23;96.49;99863.67;1697633;83;21052;-75
2021/07/07 02:58:05;;;;;;;7.60;6.78;;;;;;;20.23;96.45;99865.05;1697396;83;21040;-73
2021/07/07 03:00:35;;;;;;;10.18;6.87;;;;;;;20.28;96.32;99864.92;1685551;84;21915;-75
2021/07/07 03:03:07;;;;;;;12.93;7.22;;;;;;;20.32;95.87;99870.05;1677908;83;21490;-76
2021/07/07 03:05:40;;;;;;;12.90;9.05;;;;;;;20.41;95.71;99872.83;1685920;83;21475;-74
2021/07/07 03:08:07;;;;;;;;;;;;;;;20.49;94.84;99882.20;1708766;83;21060;-75
2021/07/07 03:10:33;;;;;;;9.98;7.67;;;;;;;20.55;94.54;99876.86;1713018;83;20176;-74
2021/07/07 03:13:00;;;;;;;7.80;7.00;;;;;;;20.60;93.87;99884.94;1685688;83;21212;-75
2021/07/07 03:15:26;;;;;;;7.92;7.10;;;;;;;20.64;93.62;99887.30;1697194;83;21603;-75
2021/07/07 03:17:55;;;;;;;10.78;6.50;;;;;;;20.72;93.21;99890.08;1702577;83;21493;-75
2021/07/07 03:20:21;;;;;;;8.98;6.80;;;;;;;20.81;92.05;99892.89;1683719;84;20997;-75
2021/07/07 03:22:48;;;;;;;12.28;6.97;;;;;;;20.83;91.76;99894.73;1677437;84;21496;-77
2021/07/07 03:25:14;;;;;;;10.13;8.08;;;;;;;20.87;91.49;99897.09;1659085;85;21077;-74
2021/07/07 03:27:41;;;;;;;6.80;6.05;;;;;;;20.93;91.08;99902.68;1667297;84;21003;-75
2021/07/07 03:30:10;;;;;;;6.58;6.05;;;;;;;20.99;91.10;99900.63;1675904;84;21002;-75
2021/07/07 03:32:36;;;;;;;11.05;7.10;;;;;;;21.06;91.00;99894.13;1684905;84;21472;-77
2021/07/07 03:35:05;;;;;;;6.03;5.45;;;;;;;21.15;90.64;99904.02;1658548;84;21077;-76
2021/07/07 03:37:32;;;;;;;10.68;9.20;;;;;;;21.19;89.82;99899.56;1677732;84;21046;-76
2021/07/07 03:39:58;;;;;;;11.45;7.92;;;;;;;21.19;89.85;99898.20;1695964;84;21013;-76
2021/07/07 03:42:24;;;;;;;6.62;6.03;;;;;;;21.21;89.58;99905.51;1696497;84;21486;-77
2021/07/07 03:44:51;;;;;;;8.15;7.20;;;;;;;21.27;88.94;99906.99;1671911;84;21041;-77
2021/07/07 03:47:17;;;;;;;8.98;6.30;;;;;;;21.36;88.95;99910.31;1672055;84;21048;-76
2021/07/07 03:49:45;;;;;;;6.00;5.50;;;;;;;21.43;87.94;99905.21;1696100;84;21172;-77
2021/07/07 03:52:11;;;;;;;6.80;6.10;;;;;;;21.47;87.63;99915.20;1696539;84;21057;-78
2021/07/07 03:54:38;;;;;;;11.93;7.50;;;;;;;21.44;87.42;99910.34;1671992;84;21068;-77
2021/07/07 03:57:04;;;;;;;9.38;6.42;;;;;;;21.40;87.52;99908.00;1696056;84;21517;-75
2021/07/07 03:59:31;;;;;;;8.53;7.20;;;;;;;21.32;88.18;99915.63;1696258;84;21533;-75
2021/07/07 04:01:57;;;;;;;8.13;6.50;;;;;;;21.27;88.67;99919.30;1672074;84;21193;-78
2021/07/07 04:04:23;;;;;;;8.93;7.78;;;;;;;21.27;88.88;99920.67;1671708;84;21033;-76
2021/07/07 04:06:50;;;;;;;10.95;7.83;;;;;;;21.29;89.12;99912.94;1696091;84;21029;-77
2021/07/07 04:09:19;;;;;;;8.95;7.15;;;;;;;21.28;88.92;99916.82;1695930;84;20997;-76
2021/07/07 04:11:45;;;;;;;10.05;7.22;;;;;;;21.36;88.63;99920.70;1672408;84;21569;-76
2021/07/07 04:14:12;;;;;;;9.78;7.58;;;;;;;21.43;88.41;99923.00;1671968;84;21102;-76
2021/07/07 04:16:38;;;;;;;6.92;6.33;;;;;;;21.44;88.12;99921.30;1695816;84;21548;-77
2021/07/07 04:19:05;;;;;;;9.55;7.20;;;;;;;21.48;88.20;99921.48;1696012;84;21635;-77
2021/07/07 04:21:32;;;;;;;8.63;7.28;;;;;;;21.53;87.99;99922.16;1671751;84;20999;-76
2021/07/07 04:23:58;;;;;;;12.95;9.45;;;;;;;21.54;87.56;99922.38;1696223;84;21085;-75
2021/07/07 04:26:24;;;;;;;9.93;8.10;;;;;;;21.53;87.44;99922.72;1672042;84;21058;-76
2021/07/07 04:28:51;;;;;;;10.25;7.95;;;;;;;21.55;87.61;99928.11;1696080;84;20957;-75
2021/07/07 04:31:17;;;;;;;7.85;7.10;;;;;;;21.63;87.75;99927.31;1696158;84;21024;-74
2021/07/07 04:33:52;;;;;;;8.05;6.58;;;;;;;21.72;87.17;99924.63;1696127;84;21036;-75
2021/07/07 04:36:18;;;;;;;7.83;6.60;;;;;;;21.80;86.88;99923.03;1672080;84;20986;-75
2021/07/07 04:38:44;;;;;;;8.18;7.37;;;;;;;21.87;86.02;99926.13;1672029;84;21375;-75
2021/07/07 04:41:11;;;;;;;7.60;6.90;;;;;;;21.89;85.84;99927.41;1695959;84;21012;-75
2021/07/07 04:43:39;;;;;;;9.35;7.08;;;;;;;21.93;85.87;99933.88;1671980;84;21379;-76
2021/07/07 04:46:05;;;;;;;7.80;7.10;;;;;;;21.98;85.79;99932.36;1696081;84;20992;-75
2021/07/07 04:48:32;;;;;;;7.37;6.47;;;;;;;22.03;85.50;99937.69;1695999;84;21112;-74
2021/07/07 04:50:58;;;;;;;6.83;6.22;;;;;;;22.06;84.82;99935.67;1672132;84;21215;-73
2021/07/07 04:53:24;;;;;;;11.85;10.68;;;;;;;22.10;84.17;99938.04;1695800;84;21506;-75
2021/07/07 04:55:52;;;;;;;9.25;7.45;;;;;;;22.11;84.43;99940.19;1695935;84;20997;-77
2021/07/07 04:58:18;;;;;;;8.15;6.90;;;;;;;22.15;84.26;99945.30;1695861;84;21048;-76
2021/07/07 05:00:45;;;;;;;9.15;6.92;;;;;;;22.20;83.79;99942.41;1671898;84;21529;-78
2021/07/07 05:03:12;;;;;;;6.58;5.95;;;;;;;22.22;83.67;99941.50;1695986;84;21058;-79
2021/07/07 05:05:39;;;;;;;9.65;7.92;;;;;;;22.32;83.76;99950.78;1695938;84;21545;-79
2021/07/07 05:08:06;;;;;;;7.50;5.80;;;;;;;22.39;83.26;99949.76;1672278;84;20953;-78
2021/07/07 05:10:33;;;;;;;10.05;6.35;;;;;;;22.44;81.55;99950.97;1695853;84;20914;-75
2021/07/07 05:13:05;;;;;;;6.67;6.08;;;;;;;22.48;80.98;99959.34;1696069;84;21601;-76
2021/07/07 05:15:36;;;;;;;7.80;7.10;;;;;;;22.52;80.93;99966.60;1642123;87;20924;-77
2021/07/07 05:18:07;;;;;;;8.85;6.72;;;;;;;22.57;79.67;99965.63;1669562;85;20983;-80
2021/07/07 05:20:35;;;;;;;8.05;6.75;;;;;;;22.62;77.81;99968.22;1668491;84;21064;-77
2021/07/07 05:23:08;;;;;;;8.53;7.00;;;;;;;22.67;74.83;99974.09;1663213;86;20917;-78
2021/07/07 05:25:35;;;;;;;12.07;7.62;;;;;;;22.70;71.46;99974.28;1649611;86;21091;-79
2021/07/07 05:28:02;;;;;;;7.58;5.47;;;;;;;22.79;70.80;99977.02;1657992;86;21154;-81
2021/07/07 05:30:29;;;;;;;4.87;3.95;;;;;;;22.86;65.54;99980.09;1675820;85;21335;-80
2021/07/07 05:32:56;;;;;;;5.30;4.80;;;;;;;22.92;63.40;99985.09;1628062;86;20967;-81
2021/07/07 05:35:22;;;;;;;6.42;4.17;;;;;;;22.99;62.35;99978.54;1656351;86;20959;-81
2021/07/07 05:37:49;;;;;;;8.03;4.58;;;;;;;23.03;61.90;99980.05;1639283;86;21119;-78
2021/07/07 05:40:16;;;;;;;7.30;4.33;;;;;;;23.09;62.51;99984.25;1658347;85;21231;-77
2021/07/07 05:42:45;;;;;;;7.60;4.50;;;;;;;23.13;61.43;99985.77;1677558;85;21586;-82
2021/07/07 05:45:12;;;;;;;5.92;4.83;;;;;;;23.20;61.86;99992.95;1678421;84;21591;-80
2021/07/07 05:47:38;;;;;;;6.15;5.20;;;;;;;23.15;62.95;99997.23;1677978;85;21003;-78
2021/07/07 05:50:06;;;;;;;6.15;5.65;;;;;;;23.12;64.28;99989.08;1662579;85;21004;-76
2021/07/07 05:52:33;;;;;;;6.95;6.35;;;;;;;23.11;65.45;99999.03;1637452;86;21774;-79
2021/07/07 05:54:59;;;;;;;6.50;5.60;;;;;;;23.11;66.05;99994.34;1658930;86;21118;-78
2021/07/07 05:57:37;;;;;;;7.40;6.37;;;;;;;23.13;66.61;100000.86;1655505;86;21177;-78
2021/07/07 05:59:54;;;;;;;7.92;6.40;;;;;;;23.15;66.20;99999.98;1651728;86;21083;-79
2021/07/07 06:02:21;;;;;;;10.85;5.87;;;;;;;23.13;66.51;100003.05;1663834;84;21523;-77
2021/07/07 06:04:47;;;;;;;8.33;6.17;;;;;;;23.19;66.13;100007.23;1657353;85;21276;-77
2021/07/07 06:07:13;;;;;;;24.15;7.30;;;;;;;23.21;65.55;100008.30;1634434;87;21519;-80
2021/07/07 06:09:40;;;;;;;12.45;6.90;;;;;;;23.19;65.49;100016.03;1626588;87;20967;-80
2021/07/07 06:12:07;;;;;;;19.02;7.00;;;;;;;23.16;65.48;100006.53;1630516;87;21047;-79
2021/07/07 06:14:33;;;;;;;15.23;7.12;;;;;;;23.19;66.46;100009.17;1635234;87;21013;-78
2021/07/07 06:16:59;;;;;;;14.45;6.25;;;;;;;23.28;66.62;100009.96;1615754;87;22170;-76
2021/07/07 06:19:26;;;;;;;16.00;6.47;;;;;;;23.36;66.57;100007.75;1672822;84;21596;-77
2021/07/07 06:21:52;;;;;;;14.60;6.12;;;;;;;23.39;65.99;100007.92;1674791;84;20997;-75
2021/07/07 06:24:19;;;;;;;17.37;6.92;;;;;;;23.42;65.52;100014.13;1630565;86;21080;-80
2021/07/07 06:26:45;;;;;;;11.88;6.08;;;;;;;23.50;65.44;100017.22;1653653;86;21059;-76
2021/07/07 06:29:12;;;;;;;7.45;5.20;;;;;;;23.58;64.98;100014.44;1674299;85;21318;-78
2021/07/07 06:31:38;;;;;;;4.33;3.92;;;;;;;23.66;63.53;100009.47;1664136;84;21016;-78
2021/07/07 06:34:05;;;;;;;4.22;3.72;;;;;;;23.76;60.16;100017.35;1643123;86;21051;-80
2021/07/07 06:36:31;;;;;;;3.80;3.45;;;;;;;23.84;59.46;100021.19;1663389;85;21834;-78
2021/07/07 06:38:58;;;;;;;6.28;4.25;;;;;;;23.89;59.93;100022.38;1634288;86;20980;-79
2021/07/07 06:41:24;;;;;;;5.55;4.08;;;;;;;23.93;59.80;100030.23;1653562;86;21146;-78
2021/07/07 06:43:51;;;;;;;13.00;3.45;;;;;;;23.97;58.69;100030.36;1620764;87;21056;-78
2021/07/07 06:46:17;;;;;;;6.80;4.10;;;;;;;23.97;58.47;100035.30;1653614;86;21130;-79
2021/07/07 06:48:44;;;;;;;7.55;3.87;;;;;;;24.01;58.97;100032.12;1654274;86;20994;-77
2021/07/07 06:51:10;;;;;;;7.22;3.72;;;;;;;24.00;57.64;100033.81;1620863;87;21516;-77
2021/07/07 06:53:36;;;;;;;6.67;4.00;;;;;;;24.00;57.96;100034.63;1641709;87;21221;-78
2021/07/07 06:56:04;;;;;;;5.90;4.25;;;;;;;24.05;58.41;100037.75;1641604;87;21571;-80
2021/07/07 06:58:30;;;;;;;5.70;4.67;;;;;;;24.12;58.48;100037.48;1629222;87;21545;-79
2021/07/07 07:00:57;;;;;;;5.30;3.80;;;;;;;24.14;56.86;100033.81;1607998;88;21518;-81
2021/07/07 07:03:24;;;;;;;6.78;4.58;;;;;;;24.18;57.38;100040.30;1602762;89;21132;-79
2021/07/07 07:05:50;;;;;;;7.08;3.80;;;;;;;24.23;57.91;100036.55;1626443;88;21977;-80
2021/07/07 07:08:18;;;;;;;7.75;4.80;;;;;;;24.29;58.09;100040.16;1610125;87;21020;-80
2021/07/07 07:10:48;;;;;;;5.37;3.40;;;;;;;24.37;57.94;100030.80;1626429;88;21497;-79
2021/07/07 07:13:17;;;;;;;8.30;4.17;;;;;;;24.41;57.40;100028.45;1607564;88;21171;-80
2021/07/07 07:15:48;;;;;;;4.58;3.10;;;;;;;24.46;57.09;100035.10;1626611;87;21080;-79
2021/07/07 07:18:19;;;;;;;5.45;4.40;;;;;;;24.50;57.52;100034.70;1632105;87;21639;-81
2021/07/07 07:20:46;;;;;;;5.97;3.33;;;;;;;24.55;57.19;100029.56;1638941;86;21000;-80
2021/07/07 07:23:14;;;;;;;4.78;3.72;;;;;;;24.58;55.62;100030.27;1638910;86;21042;-78
2021/07/07 07:25:47;;;;;;;14.00;3.83;;;;;;;24.63;55.68;100039.69;1638421;86;21025;-77
2021/07/07 07:28:23;;;;;;;4.80;2.98;;;;;;;24.65;55.41;100031.33;1631340;86;21031;-77
2021/07/07 07:30:50;;;;;;;5.60;4.22;;;;;;;24.65;55.41;100036.83;1614299;88;21218;-78
2021/07/07 07:33:18;;;;;;;5.08;4.62;;;;;;;24.63;55.46;100029.50;1619991;87;21509;-79
2021/07/07 07:35:53;;;;;;;5.10;3.37;;;;;;;24.61;55.90;100035.89;1624153;87;21024;-79
2021/07/07 07:38:28;;;;;;;6.40;3.35;;;;;;;24.62;56.52;100038.08;1634345;87;21104;-81
2021/07/07 07:41:01;;;;;;;10.55;5.35;;;;;;;24.68;56.98;100033.42;1634636;87;21111;-80
2021/07/07 07:43:30;;;;;;;3.33;3.08;;;;;;;24.72;56.48;100038.48;1620905;87;21163;-79
2021/07/07 07:45:56;;;;;;;5.20;4.70;;;;;;;24.74;56.09;100040.34;1615529;88;21085;-78
2021/07/07 07:48:23;;;;;;;8.73;4.25;;;;;;;24.77;55.74;100038.86;1628719;87;21091;-79
2021/07/07 07:50:57;;;;;;;3.98;3.67;;;;;;;24.78;56.14;100041.05;1611448;88;21090;-79
2021/07/07 07:53:23;;;;;;;6.58;3.50;;;;;;;24.84;56.14;100039.70;1620562;87;21048;-80
2021/07/07 07:55:50;;;;;;;7.20;3.52;;;;;;;24.89;56.20;100041.69;1608340;88;21143;-79
2021/07/07 07:58:18;;;;;;;4.22;3.83;;;;;;;24.90;55.79;100039.17;1613922;88;21077;-78
2021/07/07 08:00:47;;;;;;;3.80;3.10;;;;;;;24.93;55.81;100044.59;1625395;87;20988;-78
2021/07/07 08:03:13;;;;;;;5.92;3.90;;;;;;;24.97;55.69;100044.95;1627662;87;21039;-76
2021/07/07 08:05:42;;;;;;;7.42;4.10;;;;;;;25.03;56.15;100046.38;1628801;87;21044;-77
2021/07/07 08:08:09;;;;;;;5.03;3.80;;;;;;;25.14;56.10;100049.48;1629621;87;21112;-76
2021/07/07 08:10:36;;;;;;;5.65;3.50;;;;;;;25.22;55.41;100044.49;1626065;87;20976;-77
2021/07/07 08:13:04;;;;;;;9.18;4.05;;;;;;;25.27;55.47;100049.79;1626001;87;21041;-77
2021/07/07 08:15:31;;;;;;;4.20;3.80;;;;;;;25.29;55.10;100052.99;1625306;87;21017;-77
2021/07/07 08:17:58;;;;;;;4.50;3.40;;;;;;;25.32;55.09;100043.27;1602659;87;21131;-81
2021/07/07 08:20:25;;;;;;;17.70;4.50;;;;;;;25.34;54.53;100050.03;1641634;87;21285;-81
2021/07/07 08:22:53;;;;;;;13.75;4.37;;;;;;;25.39;54.30;100048.44;1637317;87;21096;-78
2021/07/07 08:25:20;;;;;;;4.20;3.72;;;;;;;25.46;53.95;100056.97;1605434;87;21048;-78
2021/07/07 08:27:46;;;;;;;7.05;3.58;;;;;;;25.50;52.83;100051.58;1604189;88;21031;-79
2021/07/07 08:30:15;;;;;;;7.25;4.03;;;;;;;25.57;53.29;100055.97;1632170;87;21029;-76
2021/07/07 08:32:41;;;;;;;16.35;6.75;;;;;;;25.65;53.09;100054.28;1622597;88;21370;-77
2021/07/07 08:35:09;;;;;;;5.95;4.12;;;;;;;25.65;52.43;100055.09;1626694;88;21065;-76
2021/07/07 08:37:35;;;;;;;7.15;3.37;;;;;;;25.64;52.45;100058.98;1598015;88;21051;-77
2021/07/07 08:40:04;;;;;;;9.63;3.33;;;;;;;25.67;51.83;100064.37;1602349;88;21597;-77
2021/07/07 08:42:34;;;;;;;16.52;3.83;;;;;;;25.65;51.94;100060.59;1597972;88;21090;-78
2021/07/07 08:44:59;;;;;;;4.17;3.00;;;;;;;25.69;52.45;100060.72;1620725;88;21170;-76
2021/07/07 08:47:25;;;;;;;10.63;3.58;;;;;;;25.76;52.59;100061.75;1624964;88;21004;-77
2021/07/07 08:49:52;;;;;;;7.97;4.05;;;;;;;25.88;52.95;100060.97;1656860;86;21511;-76
2021/07/07 08:52:18;;;;;;;4.97;4.40;;;;;;;25.94;51.78;100063.17;1664970;86;20990;-76
2021/07/07 08:54:47;;;;;;;6.85;3.75;;;;;;;25.98;50.48;100063.28;1663867;86;21578;-78
2021/07/07 08:57:14;;;;;;;4.72;3.87;;;;;;;26.01;50.20;100065.34;1665238;86;21223;-77
2021/07/07 08:59:40;;;;;;;5.87;3.08;;;;;;;26.05;50.33;100066.27;1653695;86;21047;-76
2021/07/07 09:02:11;;;;;;;7.33;3.25;;;;;;;26.02;50.07;100063.63;1668819;85;21056;-77
2021/07/07 09:04:40;;;;;;;3.35;3.00;;;;;;;26.07;50.80;100066.73;1676031;85;20924;-75
2021/07/07 09:07:13;;;;;;;6.20;3.92;;;;;;;26.17;50.81;100064.91;1665629;85;21072;-75
2021/07/07 09:09:47;;;;;;;5.45;3.75;;;;;;;26.23;51.21;100068.27;1619488;86;21542;-78
2021/07/07 09:12:22;;;;;;;10.00;6.05;;;;;;;26.32;49.96;100068.95;1636611;87;21027;-78
2021/07/07 09:14:50;;;;;;;;;;;;;;;26.43;50.13;100075.59;1593339;88;21582;-77
2021/07/07 09:17:19;;;;;;;4.15;2.85;;;;;;;26.55;49.55;100074.78;1662332;86;20114;-77
2021/07/07 09:19:48;;;;;;;3.47;3.17;;;;;;;26.57;48.97;100072.50;1658204;86;21046;-78
2021/07/07 09:22:14;;;;;;;6.62;3.95;;;;;;;26.57;48.90;100073.88;1664444;86;22560;-79
2021/07/07 09:24:45;;;;;;;3.95;3.65;;;;;;;26.56;49.46;100082.73;1664179;86;21099;-78
2021/07/07 09:27:16;;;;;;;7.67;3.50;;;;;;;26.54;48.95;100081.45;1643352;87;20995;-75
2021/07/07 09:29:52;;;;;;;7.92;3.60;;;;;;;26.49;49.88;100083.88;1639170;86;21544;-76
2021/07/07 09:32:29;;;;;;;4.40;2.35;;;;;;;26.51;48.98;100081.58;1634071;86;21007;-75
2021/07/07 09:35:04;;;;;;;7.10;3.22;;;;;;;26.57;48.34;100076.64;1678278;85;21180;-72
2021/07/07 09:37:37;;;;;;;4.17;2.80;;;;;;;26.66;46.47;100078.11;1689162;84;21034;-79
2021/07/07 09:40:08;;;;;;;2.75;2.50;;;;;;;26.71;45.94;100087.53;1679220;85;21040;-77
2021/07/07 09:42:38;;;;;;;5.75;3.12;;;;;;;26.69;46.29;100076.03;1679767;84;21603;-79
2021/07/07 09:45:08;;;;;;;5.80;3.27;;;;;;;26.71;45.79;100086.16;1665391;84;21058;-75
2021/07/07 09:47:34;;;;;;;2.50;2.30;;;;;;;26.78;45.11;100082.22;1694455;83;21043;-77
2021/07/07 09:50:01;;;;;;;4.12;2.50;;;;;;;26.87;43.11;100076.59;1666505;85;20964;-77
2021/07/07 09:52:29;;;;;;;3.37;2.12;;;;;;;26.95;41.92;100080.38;1680051;85;21574;-77
2021/07/07 09:54:56;;;;;;;8.88;2.85;;;;;;;27.01;42.27;100076.20;1673157;84;20936;-77
2021/07/07 09:57:24;;;;;;;11.08;2.95;;;;;;;27.02;42.61;100086.90;1677887;84;21695;-76
2021/07/07 09:59:50;;;;;;;2.87;2.10;;;;;;;27.08;42.75;100087.46;1678686;84;21130;-75
2021/07/07 10:02:17;;;;;;;3.05;2.00;;;;;;;27.11;41.54;100090.31;1679483;84;21138;-77
2021/07/07 10:04:44;;;;;;;6.85;2.80;;;;;;;27.14;41.95;100100.69;1680282;85;21054;-77
2021/07/07 10:07:14;;;;;;;4.17;3.27;;;;;;;27.19;42.80;100105.96;1680258;85;21556;-76
2021/07/07 10:09:47;;;;;;;7.70;3.12;;;;;;;27.29;41.69;100095.77;1679106;84;21481;-79
2021/07/07 10:12:15;;;;;;;2.62;2.15;;;;;;;27.36;41.03;100106.23;1679216;84;21049;-76
2021/07/07 10:14:43;;;;;;;3.30;2.10;;;;;;;27.37;41.36;100109.22;1690188;84;21473;-71
2021/07/07 10:17:09;;;;;;;6.78;2.27;;;;;;;27.41;40.42;100103.78;1676350;85;21090;-72
2021/07/07 10:19:37;;;;;;;3.65;2.37;;;;;;;27.40;41.08;100107.12;1614053;85;20963;-75
2021/07/07 10:22:04;;;;;;;4.87;2.90;;;;;;;27.37;42.03;100102.89;1652239;86;21043;-68
2021/07/07 10:24:32;;;;;;;3.55;2.85;;;;;;;27.36;42.48;100107.61;1680497;84;22833;-69
2021/07/07 10:27:01;;;;;;;10.68;3.75;;;;;;;27.38;42.92;100105.88;1680309;85;21527;-70
2021/07/07 10:29:27;;;;;;;6.22;2.45;;;;;;;27.50;43.59;100110.80;1668417;85;21057;-71
2021/07/07 10:32:00;;;;;;;10.00;3.17;;;;;;;27.64;43.22;100104.27;1616638;84;20969;-77
2021/07/07 10:34:28;;;;;;;5.27;3.07;;;;;;;27.78;42.86;100118.24;1668091;84;21021;-75
2021/07/07 10:36:58;;;;;;;7.15;3.45;;;;;;;27.81;41.60;100113.41;1663897;84;21138;-75
2021/07/07 10:39:25;;;;;;;8.90;2.83;;;;;;;27.74;41.97;100112.05;1681518;83;21040;-77
2021/07/07 10:41:54;;;;;;;4.75;2.67;;;;;;;27.78;42.50;100116.86;1646874;86;21628;-76
2021/07/07 10:44:30;;;;;;;5.40;2.37;;;;;;;27.85;42.09;100112.34;1635755;87;21564;-77
2021/07/07 10:47:10;;;;;;;3.17;2.72;;;;;;;27.75;40.86;100112.86;1672051;84;21567;-75
2021/07/07 10:49:53;;;;;;;7.67;2.87;;;;;;;27.70;41.83;100120.03;1686654;84;21139;-73
2021/07/07 10:52:43;;;;;;;3.98;2.30;;;;;;;27.77;41.63;100127.11;1693750;84;21122;-76
2021/07/07 10:55:13;;;;;;;9.15;2.58;;;;;;;27.93;41.65;100118.84;1673086;84;21544;-71
2021/07/07 10:57:40;;;;;;;7.40;2.12;;;;;;;28.10;40.34;100129.59;1673261;84;21533;-72
2021/07/07 11:00:29;;;;;;;2.45;2.00;;;;;;;28.09;40.17;100121.86;1671460;84;21035;-71
2021/07/07 11:03:39;;;;;;;7.33;2.47;;;;;;;28.10;39.97;100126.24;1664332;84;21556;-78
2021/07/07 11:06:27;;;;;;;3.27;2.22;;;;;;;28.12;39.58;100130.85;1667078;84;21067;-81
2021/07/07 11:09:14;;;;;;;9.88;3.30;;;;;;;28.17;39.04;100121.48;1693624;84;21040;-81
2021/07/07 11:11:45;;;;;;;7.47;3.65;;;;;;;28.27;39.14;100120.14;1693407;84;20990;-82
2021/07/07 11:14:22;;;;;;;11.40;2.75;;;;;;;28.44;39.93;100132.24;1671378;84;21525;-77
2021/07/07 11:16:57;;;;;;;4.17;2.58;;;;;;;28.51;39.41;100127.66;1673024;84;21362;-77
2021/07/07 11:19:47;;;;;;;3.72;2.50;;;;;;;28.57;38.98;100125.43;1693501;84;20991;-74
2021/07/07 11:22:17;;;;;;;6.47;3.05;;;;;;;28.55;38.93;100124.97;1691250;84;21000;-76
2021/07/07 11:24:50;;;;;;;8.60;3.10;;;;;;;28.48;39.26;100120.09;1668632;84;20991;-79
2021/07/07 11:27:17;;;;;;;4.65;2.55;;;;;;;28.53;40.32;100121.20;1671918;84;21040;-78
2021/07/07 11:29:44;;;;;;;10.08;3.55;;;;;;;28.68;40.10;100115.39;1693533;84;21132;-77
2021/07/07 11:32:37;;;;;;;7.83;3.58;;;;;;;28.82;40.87;100121.88;1693043;84;21022;-77
2021/07/07 11:35:11;;;;;;;8.10;2.95;;;;;;;28.90;40.43;100115.33;1693114;84;21494;-75
2021/07/07 11:37:37;;;;;;;5.03;2.62;;;;;;;29.03;40.54;100124.52;1684099;84;20911;-76
2021/07/07 11:40:12;;;;;;;3.25;2.65;;;;;;;29.05;40.35;100125.56;1680362;84;21468;-75
2021/07/07 11:43:10;;;;;;;10.40;3.25;;;;;;;28.99;39.98;100125.62;1680000;85;21107;-78
2021/07/07 11:45:42;;;;;;;3.05;2.55;;;;;;;28.86;40.06;100127.72;1657975;85;21011;-80
2021/07/07 11:48:19;;;;;;;5.05;2.50;;;;;;;28.92;40.46;100125.48;1680345;85;20986;-75
2021/07/07 11:50:57;;;;;;;6.05;2.55;;;;;;;28.97;40.29;100128.73;1657968;85;20959;-76
2021/07/07 11:53:39;;;;;;;10.00;3.17;;;;;;;29.03;40.36;100133.41;1641833;86;21028;-75
2021/07/07 11:56:08;;;;;;;5.03;2.02;;;;;;;29.12;40.32;100131.23;1633519;86;21107;-72